Time;durP1;ratioP1;P1;durP2;ratioP2;P2;SDS_P1;SDS_P2;PMS_P1;PMS_P2;Temp;Humidity;BMP_temperature;BMP_pressure;BME280_temperature;BME280_humidity;BME280_pressure;Samples;Min_cycle;Max_cycle;Signal;HPM_P1;HPM_P2
2022/11/21 00:00:27;;;;;;;0.83;0.83;;;8.30;99.90;;;;;;5013000;28;20201;-64
2022/11/21 00:02:54;;;;;;;1.00;0.90;;;8.30;99.90;;;;;;5012814;28;20269;-64
2022/11/21 00:05:20;;;;;;;0.77;0.77;;;8.30;99.90;;;;;;5011816;28;20225;-64
2022/11/21 00:07:48;;;;;;;0.93;0.93;;;8.30;99.90;;;;;;5012603;28;20236;-64
2022/11/21 00:10:15;;;;;;;0.70;0.70;;;8.40;99.90;;;;;;5012802;28;20237;-66
2022/11/21 00:12:42;;;;;;;0.50;0.50;;;8.40;99.90;;;;;;5012462;28;20201;-65
2022/11/21 00:15:10;;;;;;;0.63;0.63;;;8.40;99.90;;;;;;5011797;28;20247;-65
2022/11/21 00:17:39;;;;;;;0.67;0.67;;;8.30;99.90;;;;;;5012398;28;20203;-65
2022/11/21 00:20:06;;;;;;;0.70;0.70;;;8.40;99.90;;;;;;5012569;28;20209;-63
2022/11/21 00:22:33;;;;;;;0.83;0.83;;;8.40;99.90;;;;;;5012760;28;20205;-65
2022/11/21 00:25:00;;;;;;;0.67;0.67;;;8.40;99.90;;;;;;5012060;28;20229;-64
2022/11/21 00:27:27;;;;;;;0.60;0.60;;;8.40;99.90;;;;;;5012472;28;20227;-64
2022/11/21 00:29:54;;;;;;;0.53;0.53;;;8.40;99.90;;;;;;5012140;28;20297;-64
2022/11/21 00:32:20;;;;;;;0.57;0.57;;;8.40;99.90;;;;;;5012889;28;20212;-64
2022/11/21 00:34:49;;;;;;;0.73;0.50;;;8.30;99.90;;;;;;5012676;28;20597;-65
2022/11/21 00:37:15;;;;;;;0.53;0.53;;;8.30;99.90;;;;;;5008327;28;20679;-64
2022/11/21 00:39:42;;;;;;;0.70;0.70;;;8.30;99.90;;;;;;5012338;28;20209;-64
2022/11/21 00:42:09;;;;;;;0.30;0.30;;;8.30;99.90;;;;;;5012191;28;20594;-63
2022/11/21 00:44:36;;;;;;;0.70;0.70;;;8.20;99.90;;;;;;5012175;28;20240;-63
2022/11/21 00:47:03;;;;;;;0.70;0.70;;;8.30;99.90;;;;;;5005266;28;20308;-63
2022/11/21 00:49:29;;;;;;;0.67;0.67;;;8.30;99.90;;;;;;5012310;28;20208;-63
2022/11/21 00:51:58;;;;;;;0.50;0.50;;;8.30;99.90;;;;;;5012379;28;20221;-63
2022/11/21 00:54:24;;;;;;;0.60;0.60;;;8.30;99.90;;;;;;5011895;28;20229;-64
2022/11/21 00:56:51;;;;;;;0.60;0.60;;;8.20;99.90;;;;;;5011511;28;20205;-63
2022/11/21 00:59:18;;;;;;;0.50;0.50;;;8.20;99.90;;;;;;5024243;28;20232;-64
2022/11/21 01:01:45;;;;;;;0.63;0.63;;;8.20;99.90;;;;;;5016602;28;20202;-63
2022/11/21 01:04:12;;;;;;;0.47;0.47;;;8.20;99.90;;;;;;5028991;28;20205;-63
2022/11/21 01:06:39;;;;;;;0.63;0.63;;;8.20;99.90;;;;;;5015811;28;20717;-62
2022/11/21 01:09:07;;;;;;;0.80;0.80;;;8.20;99.90;;;;;;5029385;28;20267;-62
2022/11/21 01:11:34;;;;;;;0.70;0.60;;;8.20;99.90;;;;;;5026272;28;20201;-62
2022/11/21 01:14:00;;;;;;;0.70;0.70;;;8.20;99.90;;;;;;5019430;28;20207;-63
2022/11/21 01:16:29;;;;;;;0.70;0.70;;;8.20;99.90;;;;;;5011886;28;20208;-63
2022/11/21 01:18:57;;;;;;;0.70;0.70;;;8.30;99.90;;;;;;5032761;28;20215;-64
2022/11/21 01:21:25;;;;;;;0.80;0.80;;;8.30;99.90;;;;;;5026516;28;20224;-64
2022/11/21 01:23:53;;;;;;;0.53;0.53;;;8.30;99.90;;;;;;5022446;28;20209;-63
2022/11/21 01:26:22;;;;;;;0.70;0.70;;;8.40;99.90;;;;;;5014606;28;20332;-64
2022/11/21 01:28:50;;;;;;;0.60;0.60;;;8.40;99.90;;;;;;5015391;28;20606;-64
2022/11/21 01:31:19;;;;;;;0.60;0.60;;;8.40;99.90;;;;;;5017456;28;20561;-63
2022/11/21 01:33:46;;;;;;;0.70;0.70;;;8.30;99.90;;;;;;5021031;28;20627;-63
2022/11/21 01:36:14;;;;;;;0.70;0.70;;;8.50;99.90;;;;;;5013438;28;20221;-63
2022/11/21 01:38:43;;;;;;;0.70;0.70;;;8.40;99.90;;;;;;5012851;28;20209;-63
2022/11/21 01:41:11;;;;;;;1.03;1.00;;;8.30;99.90;;;;;;5015366;28;20201;-63
2022/11/21 01:43:39;;;;;;;0.70;0.70;;;8.20;99.90;;;;;;5014908;28;20664;-63
2022/11/21 01:46:12;;;;;;;0.70;0.70;;;8.30;99.90;;;;;;5026696;28;20650;-64
2022/11/21 01:48:44;;;;;;;0.90;0.90;;;8.30;99.90;;;;;;5015701;28;20682;-64
2022/11/21 01:51:14;;;;;;;0.80;0.80;;;8.20;99.90;;;;;;5015244;28;20396;-65
2022/11/21 01:53:46;;;;;;;0.70;0.70;;;8.20;99.90;;;;;;5014824;28;20208;-66
2022/11/21 01:56:14;;;;;;;0.77;0.77;;;8.30;99.90;;;;;;5014243;28;20670;-64
2022/11/21 01:58:44;;;;;;;0.60;0.60;;;8.30;99.90;;;;;;5010028;28;20201;-65
2022/11/21 02:01:11;;;;;;;0.80;0.80;;;8.20;99.90;;;;;;5009769;28;20208;-62
2022/11/21 02:03:39;;;;;;;0.80;0.77;;;8.20;99.90;;;;;;5011663;28;20212;-62
2022/11/21 02:06:09;;;;;;;0.80;0.80;;;8.20;99.90;;;;;;5014107;28;20225;-62
2022/11/21 02:08:37;;;;;;;0.60;0.60;;;8.20;99.90;;;;;;5014877;28;20213;-62
2022/11/21 02:11:12;;;;;;;0.50;0.50;;;8.20;99.90;;;;;;5014538;28;20208;-62
2022/11/21 02:13:39;;;;;;;0.50;0.50;;;8.10;99.90;;;;;;5014660;28;20751;-62
2022/11/21 02:16:07;;;;;;;0.33;0.33;;;8.10;99.90;;;;;;5015442;28;20229;-62
2022/11/21 02:18:34;;;;;;;0.60;0.60;;;8.20;99.90;;;;;;5024336;28;20207;-61
2022/11/21 02:21:11;;;;;;;0.40;0.40;;;8.20;99.90;;;;;;5014915;28;20202;-62
2022/11/21 02:23:43;;;;;;;0.50;0.50;;;8.20;99.90;;;;;;5014817;28;20201;-61
2022/11/21 02:26:13;;;;;;;0.37;0.37;;;8.30;99.90;;;;;;5010550;28;20252;-62
2022/11/21 02:28:41;;;;;;;0.40;0.40;;;8.30;99.90;;;;;;5014301;28;20231;-61
2022/11/21 02:31:07;;;;;;;0.30;0.30;;;8.30;99.90;;;;;;5013547;28;20201;-63
2022/11/21 02:33:35;;;;;;;0.50;0.50;;;8.40;99.90;;;;;;5010932;28;20614;-63
2022/11/21 02:36:03;;;;;;;0.40;0.40;;;8.40;99.90;;;;;;5013587;28;20308;-62
2022/11/21 02:38:33;;;;;;;0.27;0.27;;;8.40;99.90;;;;;;5014251;28;20652;-62
2022/11/21 02:41:05;;;;;;;0.50;0.50;;;8.40;99.90;;;;;;5015906;28;20265;-64
2022/11/21 02:43:38;;;;;;;0.50;0.50;;;8.40;99.90;;;;;;5016519;28;20211;-63
2022/11/21 02:46:05;;;;;;;0.70;0.70;;;8.50;99.90;;;;;;5009216;28;20221;-63
2022/11/21 02:48:33;;;;;;;0.40;0.40;;;8.50;99.90;;;;;;5017698;28;20232;-65
2022/11/21 02:51:00;;;;;;;0.63;0.63;;;8.50;99.90;;;;;;5016873;28;20810;-63
2022/11/21 02:53:27;;;;;;;0.50;0.50;;;8.50;99.90;;;;;;5017142;28;20205;-64
2022/11/21 02:55:54;;;;;;;0.70;0.70;;;8.50;99.90;;;;;;5015495;28;20233;-64
2022/11/21 02:58:21;;;;;;;0.90;0.77;;;8.50;99.90;;;;;;5016423;28;20733;-62
2022/11/21 03:00:49;;;;;;;0.70;0.70;;;8.50;99.90;;;;;;5015893;28;20213;-63
2022/11/21 03:03:16;;;;;;;0.70;0.70;;;8.40;99.90;;;;;;5015729;28;20293;-63
2022/11/21 03:05:43;;;;;;;0.50;0.50;;;8.50;99.90;;;;;;5011257;28;20230;-62
2022/11/21 03:08:10;;;;;;;0.70;0.70;;;8.50;99.90;;;;;;5015893;28;20707;-63
2022/11/21 03:10:37;;;;;;;0.40;0.40;;;8.40;99.90;;;;;;5016587;28;20223;-64
2022/11/21 03:13:05;;;;;;;0.53;0.53;;;8.40;99.90;;;;;;5017395;28;20292;-64
2022/11/21 03:15:34;;;;;;;0.67;0.67;;;8.40;99.90;;;;;;5018518;28;20308;-64
2022/11/21 03:18:03;;;;;;;0.63;0.63;;;8.40;99.90;;;;;;5019242;28;20193;-64
2022/11/21 03:20:30;;;;;;;0.63;0.63;;;8.40;99.90;;;;;;5020131;28;20218;-63
2022/11/21 03:22:57;;;;;;;0.43;0.43;;;8.30;99.90;;;;;;5017593;28;20205;-63
2022/11/21 03:25:24;;;;;;;0.50;0.50;;;8.30;99.90;;;;;;5018201;28;20243;-63
2022/11/21 03:27:53;;;;;;;0.50;0.50;;;8.40;99.90;;;;;;5016839;28;20229;-63
2022/11/21 03:30:20;;;;;;;0.53;0.53;;;8.30;99.90;;;;;;5015830;28;20212;-63
2022/11/21 03:32:47;;;;;;;0.60;0.60;;;8.40;99.90;;;;;;5014918;28;20209;-63
2022/11/21 03:35:15;;;;;;;0.60;0.60;;;8.30;99.90;;;;;;5013559;28;20221;-64
2022/11/21 03:37:42;;;;;;;0.70;0.70;;;8.30;99.90;;;;;;5011517;28;20209;-64
2022/11/21 03:40:10;;;;;;;0.50;0.50;;;8.30;99.90;;;;;;5014224;28;20210;-63
2022/11/21 03:42:37;;;;;;;0.70;0.57;;;8.40;99.90;;;;;;5014661;28;20270;-63
2022/11/21 03:45:05;;;;;;;0.40;0.40;;;8.40;99.90;;;;;;5004594;28;20312;-65
2022/11/21 03:47:32;;;;;;;0.40;0.40;;;8.40;99.90;;;;;;5014581;28;20223;-63
2022/11/21 03:49:58;;;;;;;0.30;0.30;;;8.40;99.90;;;;;;5014622;28;20209;-62
2022/11/21 03:52:27;;;;;;;0.60;0.60;;;8.40;99.90;;;;;;5013684;28;20201;-63
2022/11/21 03:54:53;;;;;;;0.50;0.50;;;8.50;99.90;;;;;;5012576;28;20241;-63
2022/11/21 03:57:20;;;;;;;0.43;0.43;;;8.50;99.90;;;;;;5014876;28;20225;-62
2022/11/21 03:59:47;;;;;;;0.73;0.67;;;8.60;99.90;;;;;;5014244;28;20205;-65
2022/11/21 04:02:14;;;;;;;0.40;0.40;;;8.60;99.90;;;;;;5013493;28;20288;-63
2022/11/21 04:04:41;;;;;;;0.50;0.50;;;8.70;99.90;;;;;;5011663;28;20229;-61
2022/11/21 04:07:08;;;;;;;0.70;0.70;;;8.70;99.90;;;;;;5012571;28;20715;-64
2022/11/21 04:09:36;;;;;;;0.53;0.53;;;8.60;99.90;;;;;;5012342;28;20284;-62
2022/11/21 04:12:03;;;;;;;0.63;0.63;;;8.70;99.90;;;;;;5012430;28;21733;-63
2022/11/21 04:14:30;;;;;;;0.63;0.63;;;8.60;99.90;;;;;;5012625;28;20223;-64
2022/11/21 04:16:57;;;;;;;0.60;0.60;;;8.60;99.90;;;;;;5011653;28;20209;-63
2022/11/21 04:19:24;;;;;;;0.70;0.70;;;8.50;99.90;;;;;;5012275;28;20212;-64
2022/11/21 04:21:50;;;;;;;0.70;0.70;;;8.60;99.90;;;;;;5012387;28;20645;-64
2022/11/21 04:24:17;;;;;;;0.43;0.43;;;8.50;99.90;;;;;;5012850;28;20284;-64
2022/11/21 04:26:45;;;;;;;0.60;0.60;;;8.60;99.90;;;;;;5026299;28;20216;-65
2022/11/21 04:29:12;;;;;;;0.70;0.70;;;8.50;99.90;;;;;;5008087;28;20217;-64
2022/11/21 04:31:39;;;;;;;1.10;0.80;;;8.50;99.90;;;;;;5012219;28;20201;-64
2022/11/21 04:34:06;;;;;;;0.60;0.60;;;8.50;99.90;;;;;;5012157;28;20201;-63
2022/11/21 04:36:33;;;;;;;0.43;0.43;;;8.50;99.90;;;;;;5011918;28;20289;-64
2022/11/21 04:39:00;;;;;;;0.60;0.60;;;8.60;99.90;;;;;;5011845;28;20201;-63
2022/11/21 04:41:26;;;;;;;1.00;0.87;;;8.50;99.90;;;;;;5014923;28;20288;-63
2022/11/21 04:43:55;;;;;;;0.60;0.60;;;8.60;99.90;;;;;;5028829;28;20211;-65
2022/11/21 04:46:21;;;;;;;0.60;0.60;;;8.50;99.90;;;;;;5020787;28;20225;-65
2022/11/21 04:48:48;;;;;;;0.50;0.50;;;8.60;99.90;;;;;;5011727;28;20311;-63
2022/11/21 04:51:15;;;;;;;0.60;0.60;;;8.60;99.90;;;;;;5010906;28;20202;-63
2022/11/21 04:53:42;;;;;;;1.00;0.83;;;8.50;99.90;;;;;;5012051;28;20288;-65
2022/11/21 04:56:09;;;;;;;0.90;0.80;;;8.50;99.90;;;;;;5023192;28;20648;-63
2022/11/21 04:58:35;;;;;;;0.73;0.70;;;8.50;99.90;;;;;;5020947;28;20203;-64
2022/11/21 05:01:08;;;;;;;0.77;0.77;;;8.50;99.90;;;;;;5030196;28;20201;-64
2022/11/21 05:03:35;;;;;;;0.70;0.70;;;8.50;99.90;;;;;;5016382;28;20568;-65
2022/11/21 05:06:02;;;;;;;0.77;0.77;;;8.50;99.90;;;;;;5011242;28;20232;-63
2022/11/21 05:08:28;;;;;;;0.80;0.80;;;8.60;99.90;;;;;;5012534;28;20217;-65
2022/11/21 05:13:40;;;;;;;0.80;0.80;;;8.60;99.90;;;;;;5012904;28;20204;-66
2022/11/21 05:16:08;;;;;;;0.77;0.77;;;8.60;99.90;;;;;;5003874;28;20578;-64
2022/11/21 05:18:34;;;;;;;0.63;0.63;;;8.70;99.90;;;;;;5012131;28;20251;-64
2022/11/21 05:21:02;;;;;;;0.50;0.50;;;8.60;99.90;;;;;;5011735;28;20201;-65
2022/11/21 05:23:29;;;;;;;0.60;0.60;;;8.70;99.90;;;;;;5012654;28;20206;-62
2022/11/21 05:25:56;;;;;;;0.90;0.90;;;8.70;99.90;;;;;;5011433;28;20312;-64
2022/11/21 05:28:22;;;;;;;1.00;0.90;;;8.70;99.90;;;;;;5012218;28;20748;-62
2022/11/21 05:30:50;;;;;;;0.93;0.90;;;8.70;99.90;;;;;;5012992;28;20211;-64
2022/11/21 05:33:19;;;;;;;1.10;0.87;;;8.70;99.90;;;;;;5016053;28;20208;-63
2022/11/21 05:35:46;;;;;;;1.07;0.97;;;8.70;99.90;;;;;;5012319;28;20229;-64
2022/11/21 05:38:13;;;;;;;0.80;0.80;;;8.70;99.90;;;;;;5010642;28;20200;-66
2022/11/21 05:40:40;;;;;;;0.80;0.80;;;8.70;99.90;;;;;;5013807;28;20201;-64
2022/11/21 05:45:51;;;;;;;0.70;0.70;;;8.70;99.90;;;;;;5011417;28;20293;-63
2022/11/21 05:48:19;;;;;;;1.10;1.07;;;8.70;99.90;;;;;;5011574;28;20308;-64
2022/11/21 05:50:48;;;;;;;0.80;0.80;;;8.70;99.90;;;;;;5011999;28;20205;-65
2022/11/21 05:53:15;;;;;;;2.30;0.90;;;8.70;99.90;;;;;;5011782;28;20202;-65
2022/11/21 05:55:42;;;;;;;1.23;1.10;;;8.70;99.90;;;;;;5006930;28;20329;-65
2022/11/21 05:58:09;;;;;;;0.97;0.97;;;8.70;99.90;;;;;;5009592;28;20265;-63
2022/11/21 06:00:37;;;;;;;0.80;0.80;;;8.70;99.90;;;;;;5010842;28;20274;-63
2022/11/21 06:05:50;;;;;;;0.80;0.80;;;8.80;99.90;;;;;;5009247;28;20303;-65
2022/11/21 06:08:17;;;;;;;1.40;1.00;;;8.80;99.90;;;;;;5003737;28;20680;-65
2022/11/21 06:10:44;;;;;;;1.47;1.10;;;8.90;99.90;;;;;;5010978;28;20202;-63
2022/11/21 06:13:21;;;;;;;0.80;0.80;;;8.80;99.90;;;;;;5014274;28;20206;-65
2022/11/21 06:15:50;;;;;;;1.13;1.00;;;8.70;99.90;;;;;;5008450;28;20711;-65
2022/11/21 06:18:17;;;;;;;0.80;0.80;;;8.80;99.90;;;;;;5010040;28;20208;-65
2022/11/21 06:20:44;;;;;;;0.80;0.80;;;8.80;99.90;;;;;;5013400;28;20201;-65
2022/11/21 06:23:12;;;;;;;1.03;0.90;;;8.80;99.90;;;;;;5005122;28;20280;-64
2022/11/21 06:25:39;;;;;;;1.00;1.00;;;8.80;99.90;;;;;;5011837;28;20225;-64
2022/11/21 06:28:06;;;;;;;1.30;1.20;;;8.80;99.90;;;;;;5011168;28;20309;-65
2022/11/21 06:30:33;;;;;;;1.10;1.00;;;8.80;99.90;;;;;;5011288;28;20289;-65
2022/11/21 06:33:02;;;;;;;1.17;1.10;;;8.80;99.90;;;;;;5011524;28;20607;-65
2022/11/21 06:35:29;;;;;;;1.13;1.10;;;8.80;99.90;;;;;;5007053;28;20221;-64
2022/11/21 06:37:56;;;;;;;1.17;1.07;;;8.90;99.90;;;;;;5013205;28;20208;-64
2022/11/21 06:40:26;;;;;;;1.00;1.00;;;8.80;99.90;;;;;;5008717;28;20236;-64
2022/11/21 06:42:53;;;;;;;1.07;0.97;;;8.90;99.90;;;;;;5010091;28;20208;-63
2022/11/21 06:45:19;;;;;;;0.80;0.80;;;8.90;99.90;;;;;;5011452;28;20229;-64
2022/11/21 06:47:47;;;;;;;1.60;1.13;;;9.00;99.90;;;;;;5014260;28;20236;-64
2022/11/21 06:50:14;;;;;;;0.90;0.90;;;8.90;99.90;;;;;;5008582;28;20206;-64
2022/11/21 06:52:41;;;;;;;0.93;0.87;;;8.90;99.90;;;;;;5009419;28;20229;-63
2022/11/21 06:55:09;;;;;;;0.60;0.60;;;8.90;99.90;;;;;;5007754;28;20312;-63
2022/11/21 06:57:37;;;;;;;1.00;1.00;;;9.00;99.90;;;;;;5011008;28;20632;-63
2022/11/21 07:00:05;;;;;;;0.67;0.67;;;9.00;99.90;;;;;;5012889;28;20596;-63
2022/11/21 07:02:32;;;;;;;1.07;1.07;;;9.00;99.90;;;;;;5010430;28;20198;-64
2022/11/21 07:04:59;;;;;;;0.87;0.87;;;9.00;99.90;;;;;;5011389;28;20235;-62
2022/11/21 07:07:26;;;;;;;1.13;0.90;;;9.00;99.90;;;;;;5011341;28;20553;-64
2022/11/21 07:09:53;;;;;;;1.20;1.10;;;9.00;99.90;;;;;;5014320;28;20219;-65
2022/11/21 07:15:06;;;;;;;0.80;0.80;;;9.00;99.90;;;;;;5010624;28;20232;-63
2022/11/21 07:17:33;;;;;;;0.77;0.77;;;9.00;99.90;;;;;;5010817;28;20251;-65
2022/11/21 07:19:59;;;;;;;1.00;1.00;;;9.00;99.90;;;;;;5009771;28;20208;-64
2022/11/21 07:22:26;;;;;;;1.00;1.00;;;9.00;99.90;;;;;;5017044;28;20204;-63
2022/11/21 07:24:53;;;;;;;1.50;1.40;;;9.00;99.90;;;;;;5009429;28;20240;-65
2022/11/21 07:27:20;;;;;;;1.07;0.90;;;9.00;99.90;;;;;;5009438;28;20209;-62
2022/11/21 07:29:47;;;;;;;0.80;0.80;;;9.00;99.90;;;;;;5011852;28;20221;-65
2022/11/21 07:32:15;;;;;;;1.13;1.00;;;9.00;99.90;;;;;;5012293;28;20208;-63
2022/11/21 07:34:42;;;;;;;1.20;1.13;;;9.00;99.90;;;;;;5010983;28;20217;-63
2022/11/21 07:37:09;;;;;;;1.67;1.30;;;9.00;99.90;;;;;;5012441;28;20201;-65
2022/11/21 07:39:36;;;;;;;2.63;1.47;;;9.00;99.90;;;;;;5013429;28;20580;-64
2022/11/21 07:42:03;;;;;;;1.43;1.30;;;9.00;99.90;;;;;;5011948;28;20316;-63
2022/11/21 07:44:30;;;;;;;1.60;1.50;;;8.90;99.90;;;;;;5012170;28;20275;-64
2022/11/21 07:46:57;;;;;;;1.40;1.30;;;8.90;99.90;;;;;;5012710;28;20212;-63
2022/11/21 07:49:25;;;;;;;2.10;1.50;;;8.90;99.90;;;;;;5011014;28;20336;-63
2022/11/21 07:51:52;;;;;;;1.20;1.10;;;9.00;99.90;;;;;;5018893;28;20220;-64
2022/11/21 07:54:19;;;;;;;1.13;1.13;;;9.00;99.90;;;;;;5015593;28;20275;-64
2022/11/21 07:56:46;;;;;;;1.07;1.07;;;9.10;99.90;;;;;;5021524;28;20330;-64
2022/11/21 07:59:12;;;;;;;1.53;1.10;;;9.20;99.90;;;;;;5018268;28;20197;-65
2022/11/21 08:01:39;;;;;;;0.87;0.87;;;9.10;99.90;;;;;;5016718;28;20567;-62
2022/11/21 08:04:06;;;;;;;0.90;0.90;;;9.20;99.90;;;;;;5015834;28;20201;-64
2022/11/21 08:06:34;;;;;;;0.90;0.90;;;9.20;99.90;;;;;;5010792;28;20197;-65
2022/11/21 08:09:01;;;;;;;0.93;0.87;;;9.30;99.90;;;;;;5014789;28;20264;-62
2022/11/21 08:11:29;;;;;;;1.10;1.10;;;9.50;99.90;;;;;;5015893;28;20689;-63
2022/11/21 08:13:58;;;;;;;1.10;1.00;;;9.60;99.90;;;;;;5013708;28;20249;-62
2022/11/21 08:16:26;;;;;;;1.00;1.00;;;9.60;99.90;;;;;;5013313;28;20304;-64
2022/11/21 08:18:53;;;;;;;1.20;0.90;;;9.70;99.90;;;;;;5014106;28;20255;-64
2022/11/21 08:21:20;;;;;;;0.80;0.80;;;9.90;99.90;;;;;;5014982;28;20694;-64
2022/11/21 08:23:49;;;;;;;1.00;1.00;;;10.10;99.90;;;;;;5012940;28;20209;-63
2022/11/21 08:26:16;;;;;;;0.80;0.80;;;10.20;99.90;;;;;;5011366;28;20777;-63
2022/11/21 08:28:43;;;;;;;0.73;0.73;;;10.40;99.90;;;;;;5009059;28;20228;-65
2022/11/21 08:31:11;;;;;;;0.80;0.80;;;10.50;99.90;;;;;;5011306;28;20226;-64
2022/11/21 08:33:37;;;;;;;1.10;1.00;;;10.60;99.90;;;;;;5008506;28;20271;-64
2022/11/21 08:36:05;;;;;;;0.83;0.83;;;10.80;99.90;;;;;;5010305;28;20239;-64
2022/11/21 08:38:32;;;;;;;0.70;0.70;;;10.90;99.90;;;;;;5011342;28;20652;-64
2022/11/21 08:43:41;;;;;;;1.10;1.00;;;10.90;99.90;;;;;;4991193;28;20252;-64
2022/11/21 08:46:08;;;;;;;0.70;0.70;;;10.90;99.90;;;;;;5012675;28;20280;-64
2022/11/21 08:48:35;;;;;;;1.00;1.00;;;10.80;99.90;;;;;;5013509;28;20252;-62
2022/11/21 08:51:02;;;;;;;1.83;1.00;;;10.70;99.90;;;;;;5013343;28;20205;-64
2022/11/21 08:53:29;;;;;;;0.83;0.83;;;10.60;99.90;;;;;;5011800;28;20545;-63
2022/11/21 08:55:56;;;;;;;0.80;0.80;;;10.40;99.90;;;;;;5011007;28;20316;-63
2022/11/21 08:58:24;;;;;;;0.80;0.80;;;10.40;99.90;;;;;;5012472;28;20286;-64
2022/11/21 09:00:51;;;;;;;1.07;1.00;;;10.40;99.90;;;;;;5011275;28;20201;-64
2022/11/21 09:03:18;;;;;;;1.07;0.97;;;10.40;99.90;;;;;;5012800;28;20209;-63
2022/11/21 09:05:44;;;;;;;0.83;0.83;;;10.40;99.90;;;;;;5010264;28;20317;-64
2022/11/21 09:08:11;;;;;;;0.90;0.90;;;10.30;99.90;;;;;;5009352;28;20205;-64
2022/11/21 09:10:38;;;;;;;1.13;1.10;;;10.50;99.90;;;;;;5010580;28;20228;-65
2022/11/21 09:13:05;;;;;;;1.00;1.00;;;10.50;99.90;;;;;;5010062;28;20220;-64
2022/11/21 09:18:17;;;;;;;0.73;0.73;;;10.40;99.90;;;;;;5006605;28;20655;-64
2022/11/21 09:20:44;;;;;;;0.67;0.67;;;10.40;99.90;;;;;;5012195;28;20202;-64
2022/11/21 09:23:13;;;;;;;1.07;1.07;;;10.30;99.90;;;;;;5009941;28;20206;-65
2022/11/21 09:25:40;;;;;;;1.17;1.00;;;10.40;99.90;;;;;;5011213;28;20274;-65
2022/11/21 09:28:09;;;;;;;0.70;0.70;;;10.30;99.90;;;;;;5012289;28;20712;-65
2022/11/21 09:30:37;;;;;;;1.47;0.97;;;10.30;99.90;;;;;;5003187;28;20236;-63
2022/11/21 09:33:07;;;;;;;0.93;0.90;;;10.50;99.90;;;;;;5016855;28;20663;-65
2022/11/21 09:35:34;;;;;;;1.13;1.07;;;10.60;99.90;;;;;;5011256;28;20293;-65
2022/11/21 09:38:01;;;;;;;0.80;0.80;;;10.60;99.90;;;;;;5013531;28;20244;-63
2022/11/21 09:40:30;;;;;;;0.83;0.70;;;10.60;99.90;;;;;;5015754;28;20198;-64
2022/11/21 09:43:26;;;;;;;0.40;0.40;;;10.50;99.90;;;;;;5017252;28;20228;-63
2022/11/21 09:45:59;;;;;;;0.80;0.80;;;10.50;99.90;;;;;;5015129;28;20240;-63
2022/11/21 09:48:31;;;;;;;0.80;0.80;;;10.60;99.90;;;;;;5015415;28;20289;-64
2022/11/21 09:51:02;;;;;;;0.63;0.63;;;10.70;99.90;;;;;;5015539;28;20335;-63
2022/11/21 09:53:34;;;;;;;0.80;0.80;;;10.90;99.90;;;;;;5015476;28;20198;-63
2022/11/21 09:56:06;;;;;;;0.80;0.80;;;10.80;99.90;;;;;;5014448;28;20237;-63
2022/11/21 09:58:37;;;;;;;0.73;0.73;;;10.90;99.90;;;;;;5015930;28;20201;-64
2022/11/21 10:01:05;;;;;;;0.90;0.90;;;11.00;99.90;;;;;;5015079;28;20224;-63
2022/11/21 10:03:41;;;;;;;0.87;0.87;;;11.00;99.90;;;;;;5015362;28;20288;-64
2022/11/21 10:06:17;;;;;;;0.90;0.90;;;11.20;99.90;;;;;;5010025;28;20319;-63
2022/11/21 10:08:55;;;;;;;0.90;0.90;;;11.30;99.90;;;;;;5019169;28;20203;-64
2022/11/21 10:11:30;;;;;;;1.00;1.00;;;11.50;99.90;;;;;;5016502;28;20205;-63
2022/11/21 10:14:10;;;;;;;0.90;0.90;;;11.50;99.90;;;;;;5018111;28;20259;-63
2022/11/21 10:16:45;;;;;;;0.80;0.80;;;11.50;99.90;;;;;;5014963;28;20297;-63
2022/11/21 10:19:26;;;;;;;1.17;0.97;;;11.50;99.90;;;;;;5007900;28;20644;-63
2022/11/21 10:22:18;;;;;;;1.30;1.20;;;11.70;99.90;;;;;;5014972;28;20204;-63
2022/11/21 10:24:55;;;;;;;1.00;1.00;;;11.70;99.90;;;;;;5014301;28;20316;-62
2022/11/21 10:27:29;;;;;;;1.10;1.00;;;11.80;99.90;;;;;;5015497;28;20201;-62
2022/11/21 10:30:01;;;;;;;1.17;1.07;;;11.70;99.90;;;;;;5014617;28;20220;-63
2022/11/21 10:32:35;;;;;;;0.80;0.80;;;11.80;99.90;;;;;;5015163;28;20229;-63
2022/11/21 10:35:12;;;;;;;1.43;1.37;;;11.90;99.90;;;;;;5013761;28;20287;-63
2022/11/21 10:37:42;;;;;;;0.90;0.90;;;11.90;99.90;;;;;;5014989;28;20708;-62
2022/11/21 10:40:20;;;;;;;1.07;1.07;;;11.90;99.90;;;;;;5008643;28;20197;-64
2022/11/21 10:42:54;;;;;;;0.80;0.80;;;12.00;99.90;;;;;;5012217;28;20567;-64
2022/11/21 10:45:22;;;;;;;1.13;1.00;;;12.00;99.90;;;;;;5015469;28;20225;-64
2022/11/21 10:47:51;;;;;;;1.30;1.20;;;11.90;99.90;;;;;;5009806;28;20660;-64
2022/11/21 10:50:46;;;;;;;1.00;1.00;;;11.90;99.90;;;;;;5015708;28;20225;-64
2022/11/21 10:56:09;;;;;;;1.00;0.90;;;11.80;99.90;;;;;;5017019;28;20314;-63
2022/11/21 10:58:43;;;;;;;1.23;1.00;;;11.80;99.90;;;;;;5017027;28;20225;-63
2022/11/21 11:01:21;;;;;;;1.13;1.00;;;11.90;99.90;;;;;;5008341;28;20212;-63
2022/11/21 11:04:06;;;;;;;0.70;0.70;;;12.00;99.90;;;;;;5016994;28;20602;-64
2022/11/21 11:06:33;;;;;;;1.00;1.00;;;12.20;99.90;;;;;;5015861;28;20203;-65
2022/11/21 11:09:00;;;;;;;1.17;1.00;;;12.30;99.90;;;;;;5015173;28;20197;-63
2022/11/21 11:11:27;;;;;;;1.00;1.00;;;12.40;99.90;;;;;;5014585;28;20256;-63
2022/11/21 11:13:59;;;;;;;1.00;1.00;;;12.30;99.90;;;;;;5013836;28;20653;-64
2022/11/21 11:16:28;;;;;;;1.20;1.10;;;12.30;99.90;;;;;;5001740;28;20597;-64
2022/11/21 11:19:00;;;;;;;1.00;1.00;;;12.20;99.90;;;;;;5012983;28;20205;-62
2022/11/21 11:21:28;;;;;;;1.07;1.07;;;12.10;99.90;;;;;;5014735;28;20284;-63
2022/11/21 11:24:21;;;;;;;0.70;0.70;;;12.20;99.90;;;;;;5015063;28;20221;-63
2022/11/21 11:26:56;;;;;;;0.80;0.80;;;12.30;99.90;;;;;;5017542;28;20205;-63
2022/11/21 11:29:25;;;;;;;1.00;1.00;;;12.30;99.90;;;;;;5013827;28;20220;-64
2022/11/21 11:31:55;;;;;;;0.80;0.80;;;12.40;99.90;;;;;;5013057;28;20656;-64
2022/11/21 11:34:26;;;;;;;1.20;1.10;;;12.30;99.90;;;;;;5013472;28;20876;-62
2022/11/21 11:37:10;;;;;;;1.20;1.10;;;12.40;99.90;;;;;;5012914;28;20208;-63
2022/11/21 11:39:40;;;;;;;1.27;1.27;;;12.50;99.90;;;;;;5018933;28;20224;-64
2022/11/21 11:48:34;;;;;;;1.33;1.23;;;12.60;99.90;;;;;;5008854;28;20650;-64
2022/11/21 11:51:07;;;;;;;0.93;0.93;;;12.50;99.90;;;;;;5013221;28;20229;-65
2022/11/21 11:53:39;;;;;;;1.30;1.20;;;12.40;99.90;;;;;;5014857;28;20205;-63
2022/11/21 11:56:12;;;;;;;1.10;1.00;;;12.40;99.90;;;;;;5002014;28;20232;-62
2022/11/21 11:58:44;;;;;;;1.37;1.27;;;12.40;99.90;;;;;;5014266;28;20694;-62
2022/11/21 12:01:15;;;;;;;1.60;1.20;;;12.30;99.90;;;;;;5006827;28;20204;-64
2022/11/21 12:03:48;;;;;;;1.00;0.90;;;12.40;99.90;;;;;;5012950;28;20213;-63
2022/11/21 12:06:21;;;;;;;0.90;0.90;;;12.50;99.90;;;;;;5013506;28;20275;-62
2022/11/21 12:08:53;;;;;;;1.30;1.20;;;12.50;99.90;;;;;;5012782;28;20301;-64
2022/11/21 12:17:21;;;;;;;1.30;1.20;;;12.40;99.90;;;;;;5007337;28;20216;-63
2022/11/21 12:19:51;;;;;;;1.00;1.00;;;12.30;99.90;;;;;;5012179;28;20228;-65
2022/11/21 12:22:20;;;;;;;1.23;1.20;;;12.30;99.90;;;;;;5012544;28;20197;-63
2022/11/21 12:24:47;;;;;;;1.10;1.10;;;12.30;99.90;;;;;;5013296;28;20236;-64
2022/11/21 12:27:24;;;;;;;1.23;1.10;;;12.30;99.90;;;;;;5016532;28;20240;-64
2022/11/21 12:30:14;;;;;;;1.23;1.00;;;12.30;99.90;;;;;;5015566;28;20230;-64
2022/11/21 12:32:55;;;;;;;0.90;0.90;;;12.30;99.90;;;;;;5015560;28;20205;-65
2022/11/21 12:35:38;;;;;;;1.00;1.00;;;12.20;99.90;;;;;;5013881;28;20224;-63
2022/11/21 12:38:23;;;;;;;0.90;0.90;;;12.30;99.90;;;;;;5014517;28;20204;-64
2022/11/21 12:42:47;;;;;;;1.00;1.00;;;12.20;99.90;;;;;;5014801;28;20201;-65
2022/11/21 12:44:03;;;;;;;0.87;0.87;;;12.30;99.90;;;;;;5080080;22;20230;-65
2022/11/21 12:46:40;;;;;;;1.10;1.10;;;12.20;99.90;;;;;;5089305;28;20424;-65
2022/11/21 12:55:19;;;;;;;1.23;1.13;;;12.10;99.90;;;;;;5073631;28;20282;-65
2022/11/21 12:58:07;;;;;;;1.40;1.10;;;12.20;99.90;;;;;;5075150;28;20199;-66
2022/11/21 13:00:52;;;;;;;0.80;0.80;;;12.10;99.90;;;;;;5071077;28;20291;-65
2022/11/21 13:03:39;;;;;;;1.33;1.10;;;12.00;99.90;;;;;;5070138;28;20305;-66
2022/11/21 13:06:12;;;;;;;1.00;1.00;;;12.00;99.90;;;;;;5072275;28;20195;-66
2022/11/21 13:08:41;;;;;;;0.90;0.90;;;12.00;99.90;;;;;;5074030;28;20260;-65
2022/11/21 13:14:07;;;;;;;1.33;1.00;;;12.10;99.90;;;;;;5074600;28;20777;-66
2022/11/21 13:16:38;;;;;;;1.10;1.10;;;12.10;99.90;;;;;;5076602;28;20286;-66
2022/11/21 13:19:23;;;;;;;1.47;1.30;;;12.10;99.90;;;;;;5076361;28;20677;-64
2022/11/21 13:21:53;;;;;;;1.07;1.07;;;12.10;99.90;;;;;;5076027;28;20791;-65
2022/11/21 13:24:55;;;;;;;1.30;1.20;;;12.10;99.90;;;;;;5076189;28;20199;-65
2022/11/21 13:27:29;;;;;;;1.23;1.17;;;12.20;99.90;;;;;;5075157;28;20206;-65
2022/11/21 13:30:24;;;;;;;1.00;1.00;;;12.20;99.90;;;;;;5075562;28;20243;-65
2022/11/21 13:32:53;;;;;;;1.10;1.00;;;12.20;99.90;;;;;;5075877;28;20305;-64
2022/11/21 13:36:06;;;;;;;1.43;1.10;;;12.20;99.90;;;;;;5074944;28;20657;-65
2022/11/21 13:39:10;;;;;;;1.40;1.30;;;12.20;99.90;;;;;;5074430;28;20249;-65
2022/11/21 13:44:55;;;;;;;1.03;1.03;;;12.10;99.90;;;;;;5073947;28;20229;-65
2022/11/21 13:48:00;;;;;;;1.33;1.13;;;12.00;99.90;;;;;;5072167;28;20205;-66
2022/11/21 13:51:03;;;;;;;1.00;1.00;;;11.90;99.90;;;;;;5073833;28;20253;-66